Time;durP1;ratioP1;P1;durP2;ratioP2;P2;SDS_P1;SDS_P2;PMS_P1;PMS_P2;Temp;Humidity;BMP_temperature;BMP_pressure;BME280_temperature;BME280_humidity;BME280_pressure;Samples;Min_cycle;Max_cycle;Signal;HPM_P1;HPM_P2
2024/02/27 00:00:34;;;;;;;9.77;6.70;;;;;;;;;;752062;185;858137;-65
2024/02/27 00:03:01;;;;;;;11.12;7.05;;;;;;;;;;748680;184;1035859;-67
2024/02/27 00:05:26;;;;;;;12.07;8.10;;;;;;;;;;736519;186;926722;-66
2024/02/27 00:07:52;;;;;;;10.10;6.67;;;;;;;;;;729042;186;915550;-68
2024/02/27 00:10:18;;;;;;;12.50;6.62;;;;;;;;;;731437;186;1014734;-68
2024/02/27 00:12:44;;;;;;;11.65;7.43;;;;;;;;;;741235;186;816637;-66
2024/02/27 00:15:10;;;;;;;9.17;6.40;;;;;;;;;;751243;185;919226;-66
2024/02/27 00:17:36;;;;;;;9.03;6.97;;;;;;;;;;750897;185;1017832;-67
2024/02/27 00:20:01;;;;;;;8.60;5.93;;;;;;;;;;754546;185;919335;-68
2024/02/27 00:22:27;;;;;;;9.77;6.40;;;;;;;;;;749620;185;918894;-65
2024/02/27 00:24:53;;;;;;;15.17;6.17;;;;;;;;;;752076;184;914737;-65
2024/02/27 00:27:19;;;;;;;10.70;7.50;;;;;;;;;;753467;185;859426;-64
2024/02/27 00:29:45;;;;;;;10.83;7.67;;;;;;;;;;747725;185;919119;-68
2024/02/27 00:32:11;;;;;;;9.83;7.37;;;;;;;;;;750962;185;919090;-65
2024/02/27 00:34:36;;;;;;;11.60;7.87;;;;;;;;;;748198;185;918625;-66
2024/02/27 00:37:02;;;;;;;10.60;7.40;;;;;;;;;;752180;185;919375;-68
2024/02/27 00:39:28;;;;;;;9.37;6.63;;;;;;;;;;747542;185;918337;-66
2024/02/27 00:41:57;;;;;;;11.77;8.68;;;;;;;;;;746937;185;867102;-65
2024/02/27 00:44:20;;;;;;;12.63;8.17;;;;;;;;;;753518;185;870322;-67
2024/02/27 00:46:46;;;;;;;11.40;8.10;;;;;;;;;;752309;185;918879;-68
2024/02/27 00:49:11;;;;;;;11.93;8.27;;;;;;;;;;755472;184;918254;-66
2024/02/27 00:51:37;;;;;;;12.87;8.07;;;;;;;;;;759448;184;918565;-64
2024/02/27 00:54:03;;;;;;;15.90;9.33;;;;;;;;;;749241;185;920733;-67
2024/02/27 00:56:29;;;;;;;12.90;8.70;;;;;;;;;;750554;184;921679;-67
2024/02/27 00:58:55;;;;;;;15.00;8.07;;;;;;;;;;750489;185;1024064;-67
2024/02/27 01:01:21;;;;;;;11.47;6.50;;;;;;;;;;752923;187;916802;-68
2024/02/27 01:03:46;;;;;;;8.90;6.57;;;;;;;;;;750696;185;992501;-66
2024/02/27 01:06:13;;;;;;;12.57;6.90;;;;;;;;;;748810;185;915650;-68
2024/02/27 01:08:38;;;;;;;10.80;6.90;;;;;;;;;;754064;185;796515;-67
2024/02/27 01:11:04;;;;;;;10.17;7.40;;;;;;;;;;748400;185;912542;-67
2024/02/27 01:13:30;;;;;;;11.80;8.03;;;;;;;;;;749852;185;919270;-67
2024/02/27 01:15:56;;;;;;;11.23;7.70;;;;;;;;;;757065;185;762318;-65
2024/02/27 01:18:21;;;;;;;7.23;5.03;;;;;;;;;;750211;185;917895;-66
2024/02/27 01:20:47;;;;;;;9.25;6.30;;;;;;;;;;752347;183;919216;-66
2024/02/27 01:23:13;;;;;;;9.47;7.00;;;;;;;;;;749329;185;918477;-65
2024/02/27 01:25:39;;;;;;;10.53;6.50;;;;;;;;;;748600;187;836114;-67
2024/02/27 01:28:06;;;;;;;10.43;6.10;;;;;;;;;;748819;184;919066;-64
2024/02/27 01:30:31;;;;;;;8.67;6.63;;;;;;;;;;754172;184;850043;-67
2024/02/27 01:32:57;;;;;;;9.83;6.40;;;;;;;;;;758958;185;919144;-65
2024/02/27 01:35:22;;;;;;;8.50;6.37;;;;;;;;;;748193;183;1021076;-69
2024/02/27 01:37:48;;;;;;;9.53;6.70;;;;;;;;;;747345;185;1013988;-69
2024/02/27 01:40:14;;;;;;;11.80;7.90;;;;;;;;;;749669;185;921463;-67
2024/02/27 01:42:40;;;;;;;9.33;5.77;;;;;;;;;;746192;185;919600;-68
2024/02/27 01:45:08;;;;;;;10.10;7.23;;;;;;;;;;752610;185;771539;-65
2024/02/27 01:47:32;;;;;;;12.73;7.80;;;;;;;;;;752078;185;918761;-65
2024/02/27 01:49:58;;;;;;;13.50;8.97;;;;;;;;;;746615;187;919280;-64
2024/02/27 01:52:24;;;;;;;11.43;7.67;;;;;;;;;;747405;185;922756;-65
2024/02/27 01:54:50;;;;;;;11.27;8.27;;;;;;;;;;748735;185;919012;-66
2024/02/27 01:57:16;;;;;;;8.77;7.00;;;;;;;;;;757778;184;919392;-68
2024/02/27 01:59:42;;;;;;;12.47;8.30;;;;;;;;;;749428;184;919288;-68
2024/02/27 02:02:08;;;;;;;10.80;7.65;;;;;;;;;;752479;184;924416;-66
2024/02/27 02:04:33;;;;;;;13.10;8.27;;;;;;;;;;754377;185;923631;-66
2024/02/27 02:07:00;;;;;;;11.40;7.10;;;;;;;;;;748760;185;943033;-67
2024/02/27 02:09:25;;;;;;;13.40;7.50;;;;;;;;;;751628;185;817984;-69
2024/02/27 02:11:51;;;;;;;12.60;7.80;;;;;;;;;;754977;185;1020121;-66
2024/02/27 02:14:19;;;;;;;10.80;7.73;;;;;;;;;;752018;184;899955;-66
2024/02/27 02:16:43;;;;;;;10.40;7.03;;;;;;;;;;747690;184;944034;-65
2024/02/27 02:19:08;;;;;;;8.50;6.13;;;;;;;;;;747663;185;926660;-66
2024/02/27 02:21:34;;;;;;;8.97;6.50;;;;;;;;;;755001;185;919194;-66
2024/02/27 02:24:00;;;;;;;9.90;6.90;;;;;;;;;;750636;185;817052;-67
2024/02/27 02:26:27;;;;;;;12.20;6.93;;;;;;;;;;748961;185;919261;-69
2024/02/27 02:28:52;;;;;;;7.30;5.53;;;;;;;;;;752877;184;917357;-68
2024/02/27 02:31:18;;;;;;;10.53;7.10;;;;;;;;;;748701;185;916015;-66
2024/02/27 02:33:43;;;;;;;11.33;7.37;;;;;;;;;;750885;184;816215;-68
2024/02/27 02:36:09;;;;;;;11.05;6.55;;;;;;;;;;759213;184;816799;-65
2024/02/27 02:38:35;;;;;;;10.23;6.70;;;;;;;;;;751698;184;817981;-66
2024/02/27 02:41:01;;;;;;;9.95;6.82;;;;;;;;;;742270;185;920188;-65
2024/02/27 02:43:27;;;;;;;11.10;8.17;;;;;;;;;;750418;184;899467;-67
2024/02/27 02:45:53;;;;;;;13.17;8.00;;;;;;;;;;754030;183;815256;-66
2024/02/27 02:48:18;;;;;;;10.60;8.07;;;;;;;;;;752352;185;857539;-65
2024/02/27 02:50:44;;;;;;;9.73;7.23;;;;;;;;;;750696;185;845548;-64
2024/02/27 02:53:10;;;;;;;14.10;9.63;;;;;;;;;;754322;185;875039;-66
2024/02/27 02:55:40;;;;;;;12.80;8.87;;;;;;;;;;748098;184;919836;-67
2024/02/27 02:58:02;;;;;;;11.87;9.10;;;;;;;;;;749992;185;917040;-65
2024/02/27 03:00:28;;;;;;;12.60;8.70;;;;;;;;;;754105;185;921906;-66
2024/02/27 03:02:54;;;;;;;14.30;9.30;;;;;;;;;;750569;185;919050;-66
2024/02/27 03:05:19;;;;;;;14.20;9.70;;;;;;;;;;748841;185;918493;-65
2024/02/27 03:07:45;;;;;;;11.23;8.50;;;;;;;;;;750429;185;918309;-66
2024/02/27 03:10:11;;;;;;;12.37;8.50;;;;;;;;;;761854;182;815943;-67
2024/02/27 03:12:38;;;;;;;15.90;9.47;;;;;;;;;;756873;182;907644;-67
2024/02/27 03:15:04;;;;;;;16.40;10.00;;;;;;;;;;750122;184;1221716;-67
2024/02/27 03:17:30;;;;;;;13.97;9.67;;;;;;;;;;756470;185;1014155;-65
2024/02/27 03:19:55;;;;;;;18.33;9.47;;;;;;;;;;753077;185;915476;-69
2024/02/27 03:22:21;;;;;;;15.80;9.90;;;;;;;;;;751383;183;922149;-66
2024/02/27 03:24:47;;;;;;;13.90;10.13;;;;;;;;;;753791;185;919377;-65
2024/02/27 03:27:13;;;;;;;14.93;8.40;;;;;;;;;;751456;185;906347;-66
2024/02/27 03:29:39;;;;;;;13.73;8.77;;;;;;;;;;750461;185;913936;-65
2024/02/27 03:32:05;;;;;;;11.47;8.27;;;;;;;;;;751017;185;816942;-67
2024/02/27 03:34:32;;;;;;;11.07;9.03;;;;;;;;;;759962;184;918109;-68
2024/02/27 03:36:57;;;;;;;15.90;10.97;;;;;;;;;;751585;184;813274;-67
2024/02/27 03:39:23;;;;;;;15.40;10.00;;;;;;;;;;752100;185;816870;-66
2024/02/27 03:41:49;;;;;;;13.10;9.03;;;;;;;;;;755036;185;816481;-66
2024/02/27 03:44:14;;;;;;;13.90;7.97;;;;;;;;;;750567;184;885076;-67
2024/02/27 03:46:40;;;;;;;11.33;8.23;;;;;;;;;;749713;185;916105;-66
2024/02/27 03:49:06;;;;;;;10.93;8.37;;;;;;;;;;756452;185;852614;-68
2024/02/27 03:51:32;;;;;;;14.13;9.23;;;;;;;;;;751177;185;917480;-66
2024/02/27 03:53:58;;;;;;;14.40;9.07;;;;;;;;;;750907;185;918755;-67
2024/02/27 03:56:24;;;;;;;12.60;7.83;;;;;;;;;;753122;184;843661;-65
2024/02/27 03:58:49;;;;;;;13.20;8.23;;;;;;;;;;747798;183;922412;-65
2024/02/27 04:01:16;;;;;;;12.63;7.87;;;;;;;;;;749645;184;897905;-68
2024/02/27 04:03:42;;;;;;;12.73;8.33;;;;;;;;;;749205;185;940719;-65
2024/02/27 04:06:08;;;;;;;16.93;9.47;;;;;;;;;;752851;185;862122;-67
2024/02/27 04:08:34;;;;;;;13.43;8.75;;;;;;;;;;749530;185;917396;-66
2024/02/27 04:11:00;;;;;;;13.47;8.60;;;;;;;;;;749554;185;916709;-67
2024/02/27 04:13:25;;;;;;;20.10;10.33;;;;;;;;;;752929;185;920330;-67
2024/02/27 04:15:51;;;;;;;11.93;8.10;;;;;;;;;;748300;185;922326;-66
2024/02/27 04:18:17;;;;;;;17.90;9.57;;;;;;;;;;750398;185;918762;-66
2024/02/27 04:20:43;;;;;;;14.90;8.67;;;;;;;;;;754281;185;914409;-67
2024/02/27 04:23:09;;;;;;;12.57;8.00;;;;;;;;;;754871;181;846243;-66
2024/02/27 04:25:35;;;;;;;13.27;8.70;;;;;;;;;;754825;184;919755;-66
2024/02/27 04:28:01;;;;;;;11.03;7.80;;;;;;;;;;750134;185;914408;-66
2024/02/27 04:30:26;;;;;;;16.30;10.20;;;;;;;;;;759305;185;916375;-65
2024/02/27 04:32:52;;;;;;;15.40;10.10;;;;;;;;;;754753;185;916515;-67
2024/02/27 04:35:18;;;;;;;14.30;9.20;;;;;;;;;;751432;185;1021017;-66
2024/02/27 04:37:44;;;;;;;12.63;8.70;;;;;;;;;;760418;181;920188;-65
2024/02/27 04:40:10;;;;;;;13.73;8.67;;;;;;;;;;753641;185;919201;-68
2024/02/27 04:42:36;;;;;;;11.90;7.93;;;;;;;;;;754258;185;917989;-66
2024/02/27 04:45:02;;;;;;;16.97;10.70;;;;;;;;;;756474;185;919334;-68
2024/02/27 04:47:28;;;;;;;16.43;7.30;;;;;;;;;;747538;185;938854;-65
2024/02/27 04:49:53;;;;;;;12.53;7.93;;;;;;;;;;747766;184;891944;-66
2024/02/27 04:52:19;;;;;;;13.27;9.37;;;;;;;;;;753658;185;804226;-68
2024/02/27 04:54:45;;;;;;;12.63;7.65;;;;;;;;;;756323;185;813820;-67
2024/02/27 04:57:11;;;;;;;13.60;9.57;;;;;;;;;;748606;185;1025782;-68
2024/02/27 04:59:37;;;;;;;13.10;9.17;;;;;;;;;;746006;185;916325;-65
2024/02/27 05:02:03;;;;;;;16.17;10.20;;;;;;;;;;755172;185;891984;-66
2024/02/27 05:04:29;;;;;;;12.97;9.10;;;;;;;;;;750714;183;919465;-66
2024/02/27 05:06:54;;;;;;;11.50;8.63;;;;;;;;;;752188;185;817480;-67
2024/02/27 05:09:20;;;;;;;12.77;9.60;;;;;;;;;;753580;185;917655;-67
2024/02/27 05:11:46;;;;;;;17.70;9.77;;;;;;;;;;751336;185;920314;-68
2024/02/27 05:14:12;;;;;;;13.93;10.50;;;;;;;;;;749692;185;916962;-66
2024/02/27 05:16:38;;;;;;;16.35;9.52;;;;;;;;;;748409;184;935888;-67
2024/02/27 05:19:04;;;;;;;16.53;10.60;;;;;;;;;;751122;183;630203;-67
2024/02/27 05:21:29;;;;;;;39.75;29.45;;;;;;;;;;748182;185;937246;-66
2024/02/27 05:23:55;;;;;;;48.13;31.50;;;;;;;;;;747701;185;919424;-68
2024/02/27 05:26:21;;;;;;;19.50;11.57;;;;;;;;;;756990;185;783073;-66
2024/02/27 05:28:47;;;;;;;27.57;13.20;;;;;;;;;;753389;184;636185;-67
2024/02/27 05:31:19;;;;;;;15.30;9.77;;;;;;;;;;750237;185;926765;-66
2024/02/27 05:33:45;;;;;;;14.30;10.53;;;;;;;;;;755356;182;626565;-67
2024/02/27 05:36:10;;;;;;;13.77;9.50;;;;;;;;;;759364;184;613517;-67
2024/02/27 05:38:36;;;;;;;16.27;9.57;;;;;;;;;;758249;184;624861;-66
2024/02/27 05:41:02;;;;;;;15.30;10.13;;;;;;;;;;750236;185;919947;-66
2024/02/27 05:43:28;;;;;;;12.30;8.13;;;;;;;;;;755280;185;919822;-66
2024/02/27 05:45:54;;;;;;;13.47;9.20;;;;;;;;;;753241;185;623977;-67
2024/02/27 05:48:19;;;;;;;13.85;9.88;;;;;;;;;;752154;185;917550;-68
2024/02/27 05:50:45;;;;;;;15.00;9.17;;;;;;;;;;758430;183;624253;-67
2024/02/27 05:53:11;;;;;;;13.20;9.07;;;;;;;;;;754947;184;623977;-66
2024/02/27 05:55:37;;;;;;;13.33;8.47;;;;;;;;;;754660;185;635493;-67
2024/02/27 05:58:03;;;;;;;13.20;9.80;;;;;;;;;;753934;184;790009;-66
2024/02/27 06:00:29;;;;;;;17.60;9.90;;;;;;;;;;753299;185;624152;-66
2024/02/27 06:02:55;;;;;;;15.47;9.77;;;;;;;;;;752680;185;779291;-65
2024/02/27 06:05:20;;;;;;;16.73;8.80;;;;;;;;;;752313;185;819407;-67
2024/02/27 06:07:47;;;;;;;12.77;8.70;;;;;;;;;;755919;185;749340;-67
2024/02/27 06:10:12;;;;;;;18.20;9.73;;;;;;;;;;749862;184;918521;-66
2024/02/27 06:12:38;;;;;;;16.10;10.23;;;;;;;;;;750074;185;920764;-66
2024/02/27 06:15:04;;;;;;;17.43;10.80;;;;;;;;;;753674;185;815827;-66
2024/02/27 06:17:30;;;;;;;13.25;10.60;;;;;;;;;;749675;185;922092;-68
2024/02/27 06:20:00;;;;;;;14.40;10.53;;;;;;;;;;749712;185;882137;-66
2024/02/27 06:22:23;;;;;;;15.83;10.00;;;;;;;;;;754357;185;916131;-66
2024/02/27 06:24:49;;;;;;;16.00;11.47;;;;;;;;;;751657;184;1024147;-67
2024/02/27 06:27:14;;;;;;;15.20;9.73;;;;;;;;;;749915;184;873969;-66
2024/02/27 06:29:40;;;;;;;16.87;11.77;;;;;;;;;;748966;185;826948;-66
2024/02/27 06:32:10;;;;;;;14.33;10.40;;;;;;;;;;753154;185;917165;-67
2024/02/27 06:34:34;;;;;;;18.40;11.37;;;;;;;;;;747901;184;965376;-66
2024/02/27 06:36:59;;;;;;;17.23;10.90;;;;;;;;;;746872;185;918680;-67
2024/02/27 06:39:25;;;;;;;15.13;10.83;;;;;;;;;;753359;185;921747;-66
2024/02/27 06:41:51;;;;;;;21.40;12.60;;;;;;;;;;749545;185;905512;-65
2024/02/27 06:44:18;;;;;;;23.95;12.48;;;;;;;;;;748591;184;919444;-66
2024/02/27 06:46:43;;;;;;;16.27;11.40;;;;;;;;;;756323;184;709374;-66
2024/02/27 06:49:09;;;;;;;22.07;14.57;;;;;;;;;;753357;183;873394;-66
2024/02/27 06:51:35;;;;;;;17.37;13.47;;;;;;;;;;751790;185;918672;-66
2024/02/27 06:54:02;;;;;;;18.53;13.37;;;;;;;;;;747776;185;917202;-67
2024/02/27 06:56:27;;;;;;;18.60;13.47;;;;;;;;;;758651;184;616959;-66
2024/02/27 06:58:55;;;;;;;16.13;11.97;;;;;;;;;;749027;184;816437;-66
2024/02/27 07:01:18;;;;;;;53.03;34.45;;;;;;;;;;748731;185;914237;-66
2024/02/27 07:03:44;;;;;;;27.93;19.80;;;;;;;;;;758115;185;814140;-67
2024/02/27 07:06:10;;;;;;;26.90;21.23;;;;;;;;;;752276;185;942649;-67
2024/02/27 07:08:36;;;;;;;21.70;16.40;;;;;;;;;;752731;184;820087;-67
2024/02/27 07:11:02;;;;;;;25.67;15.90;;;;;;;;;;754346;185;856523;-66
2024/02/27 07:13:28;;;;;;;24.50;16.20;;;;;;;;;;751792;185;918729;-67
2024/02/27 07:15:54;;;;;;;19.57;14.37;;;;;;;;;;751420;185;918656;-66
2024/02/27 07:18:19;;;;;;;24.80;15.77;;;;;;;;;;749300;185;1020144;-66
2024/02/27 07:20:45;;;;;;;33.87;22.67;;;;;;;;;;754115;184;889431;-66
2024/02/27 07:23:13;;;;;;;39.90;30.07;;;;;;;;;;752026;183;816086;-67
2024/02/27 07:25:37;;;;;;;27.53;16.73;;;;;;;;;;749326;185;918913;-67
2024/02/27 07:28:03;;;;;;;24.90;15.83;;;;;;;;;;753215;185;918684;-66
2024/02/27 07:30:29;;;;;;;21.43;14.00;;;;;;;;;;748682;185;918268;-67
2024/02/27 07:32:55;;;;;;;21.93;13.73;;;;;;;;;;749125;185;898391;-65
2024/02/27 07:35:20;;;;;;;16.90;11.97;;;;;;;;;;758461;185;715704;-65
2024/02/27 07:37:46;;;;;;;17.90;12.17;;;;;;;;;;748485;184;918946;-68
2024/02/27 07:40:12;;;;;;;17.70;10.57;;;;;;;;;;747679;184;919414;-65
2024/02/27 07:42:38;;;;;;;18.03;12.80;;;;;;;;;;746544;187;920273;-66
2024/02/27 07:45:04;;;;;;;19.57;11.57;;;;;;;;;;754660;184;913873;-68
2024/02/27 07:47:30;;;;;;;16.23;10.33;;;;;;;;;;748508;185;920869;-67
2024/02/27 07:49:57;;;;;;;14.00;10.20;;;;;;;;;;747850;183;920264;-64
2024/02/27 07:52:22;;;;;;;19.33;12.23;;;;;;;;;;752667;185;1021153;-66
2024/02/27 07:54:48;;;;;;;17.37;10.20;;;;;;;;;;748803;185;919273;-64
2024/02/27 07:57:14;;;;;;;18.43;13.27;;;;;;;;;;749754;185;919056;-64
2024/02/27 07:59:39;;;;;;;14.80;10.77;;;;;;;;;;755576;184;892162;-65
2024/02/27 08:02:05;;;;;;;20.40;12.90;;;;;;;;;;749393;185;918981;-68
2024/02/27 08:04:31;;;;;;;22.10;15.37;;;;;;;;;;748130;185;919632;-65
2024/02/27 08:06:57;;;;;;;15.70;11.45;;;;;;;;;;749560;184;919868;-67
2024/02/27 08:09:24;;;;;;;26.10;14.00;;;;;;;;;;755179;184;842936;-67
2024/02/27 08:11:49;;;;;;;15.67;11.10;;;;;;;;;;750014;185;919015;-66
2024/02/27 08:14:16;;;;;;;17.23;10.80;;;;;;;;;;753143;185;816531;-65
2024/02/27 08:16:40;;;;;;;19.23;13.30;;;;;;;;;;756344;185;921262;-68
2024/02/27 08:19:06;;;;;;;19.77;12.30;;;;;;;;;;744361;185;922496;-66
2024/02/27 08:21:32;;;;;;;16.33;11.67;;;;;;;;;;751358;185;818143;-66
2024/02/27 08:23:58;;;;;;;18.23;9.80;;;;;;;;;;757411;185;918039;-68
2024/02/27 08:26:24;;;;;;;16.20;11.97;;;;;;;;;;751385;185;914397;-68
2024/02/27 08:28:50;;;;;;;14.60;9.75;;;;;;;;;;750281;185;918753;-66
2024/02/27 08:31:15;;;;;;;12.43;9.07;;;;;;;;;;754442;185;915729;-69
2024/02/27 08:33:41;;;;;;;13.07;8.47;;;;;;;;;;749292;184;901289;-64
2024/02/27 08:36:07;;;;;;;15.03;10.70;;;;;;;;;;753433;185;923622;-67
2024/02/27 08:38:33;;;;;;;14.23;9.37;;;;;;;;;;750662;185;756987;-67
2024/02/27 08:41:01;;;;;;;17.03;10.93;;;;;;;;;;756590;185;917104;-64
2024/02/27 08:43:27;;;;;;;14.40;10.10;;;;;;;;;;751718;185;919402;-65
2024/02/27 08:45:52;;;;;;;13.90;9.53;;;;;;;;;;743989;185;919228;-65
2024/02/27 08:48:18;;;;;;;13.55;10.75;;;;;;;;;;755707;184;871247;-67
2024/02/27 08:50:47;;;;;;;14.80;9.47;;;;;;;;;;747922;185;816295;-68
2024/02/27 08:53:11;;;;;;;14.65;9.00;;;;;;;;;;747048;184;1021085;-68
2024/02/27 08:55:36;;;;;;;17.17;9.70;;;;;;;;;;754809;185;868672;-67
2024/02/27 08:58:02;;;;;;;16.77;8.60;;;;;;;;;;747308;184;920742;-64
2024/02/27 09:00:27;;;;;;;13.30;8.80;;;;;;;;;;748886;185;918380;-68
2024/02/27 09:02:53;;;;;;;13.10;8.70;;;;;;;;;;741440;187;2146532;-68
2024/02/27 09:05:19;;;;;;;9.45;7.97;;;;;;;;;;757195;185;919114;-67
2024/02/27 09:07:45;;;;;;;14.23;8.30;;;;;;;;;;749039;185;919180;-68
2024/02/27 09:10:11;;;;;;;11.20;7.67;;;;;;;;;;751546;183;910508;-68
2024/02/27 09:12:37;;;;;;;12.93;7.90;;;;;;;;;;755977;185;775530;-67
2024/02/27 09:15:03;;;;;;;21.07;15.07;;;;;;;;;;750271;185;899844;-65
2024/02/27 09:17:31;;;;;;;11.73;9.47;;;;;;;;;;751291;185;1006612;-68
2024/02/27 09:19:55;;;;;;;10.37;7.23;;;;;;;;;;760689;183;715158;-63
2024/02/27 09:22:20;;;;;;;10.50;7.70;;;;;;;;;;751579;185;816747;-69
2024/02/27 09:24:46;;;;;;;9.77;7.33;;;;;;;;;;751748;184;915558;-69
2024/02/27 09:27:12;;;;;;;11.23;7.40;;;;;;;;;;749387;185;914553;-68
2024/02/27 09:29:38;;;;;;;12.17;7.80;;;;;;;;;;753422;185;919728;-65
2024/02/27 09:32:04;;;;;;;9.60;7.57;;;;;;;;;;750860;185;918485;-68
2024/02/27 09:34:30;;;;;;;11.50;6.87;;;;;;;;;;751350;185;921629;-65
2024/02/27 09:36:56;;;;;;;13.27;8.07;;;;;;;;;;756183;185;919797;-67
2024/02/27 09:39:21;;;;;;;11.77;8.23;;;;;;;;;;747092;184;917186;-67
2024/02/27 09:41:55;;;;;;;9.98;8.25;;;;;;;;;;750463;184;940016;-69
2024/02/27 09:44:21;;;;;;;12.27;8.70;;;;;;;;;;749306;184;916031;-65
2024/02/27 09:46:47;;;;;;;12.37;8.13;;;;;;;;;;753027;184;918075;-65
2024/02/27 09:49:13;;;;;;;13.97;9.60;;;;;;;;;;754522;184;919356;-68
2024/02/27 09:51:38;;;;;;;10.50;8.57;;;;;;;;;;748960;184;905439;-68
2024/02/27 09:54:04;;;;;;;11.30;7.57;;;;;;;;;;754762;185;908918;-66
2024/02/27 09:56:30;;;;;;;9.77;7.97;;;;;;;;;;747968;185;919634;-66
2024/02/27 09:58:56;;;;;;;13.07;9.80;;;;;;;;;;744552;185;919242;-66
2024/02/27 10:01:22;;;;;;;16.13;10.30;;;;;;;;;;753638;185;918680;-67
2024/02/27 10:03:48;;;;;;;12.27;8.37;;;;;;;;;;748324;185;918859;-64
2024/02/27 10:06:14;;;;;;;15.03;9.33;;;;;;;;;;749146;185;917361;-68
2024/02/27 10:08:40;;;;;;;13.80;8.90;;;;;;;;;;751201;185;918640;-68
2024/02/27 10:11:06;;;;;;;12.60;8.37;;;;;;;;;;756700;185;918236;-68
2024/02/27 10:13:32;;;;;;;12.20;8.30;;;;;;;;;;750337;185;923833;-69
2024/02/27 10:15:58;;;;;;;9.83;8.03;;;;;;;;;;749144;185;920611;-68
2024/02/27 10:18:23;;;;;;;14.10;9.50;;;;;;;;;;754695;185;818687;-68
2024/02/27 10:20:49;;;;;;;13.88;9.50;;;;;;;;;;751280;184;817654;-68
2024/02/27 10:23:15;;;;;;;13.80;8.67;;;;;;;;;;750764;184;911980;-68
2024/02/27 10:25:41;;;;;;;17.20;9.83;;;;;;;;;;756283;185;774833;-68
2024/02/27 10:28:07;;;;;;;13.10;9.20;;;;;;;;;;749630;185;921583;-65
2024/02/27 10:30:33;;;;;;;16.83;10.37;;;;;;;;;;749982;184;923595;-65
2024/02/27 10:33:01;;;;;;;11.70;8.97;;;;;;;;;;751204;185;918741;-68
2024/02/27 10:35:24;;;;;;;12.60;9.10;;;;;;;;;;754303;184;915611;-65
2024/02/27 10:37:50;;;;;;;14.20;10.10;;;;;;;;;;748787;183;916366;-65
2024/02/27 10:40:16;;;;;;;14.75;9.45;;;;;;;;;;748503;185;920691;-65
2024/02/27 10:42:42;;;;;;;10.57;8.60;;;;;;;;;;754268;185;819055;-67
2024/02/27 10:45:08;;;;;;;16.00;9.13;;;;;;;;;;748885;185;915698;-67
2024/02/27 10:47:34;;;;;;;16.27;9.63;;;;;;;;;;747650;184;827999;-65
2024/02/27 10:50:00;;;;;;;14.37;9.40;;;;;;;;;;754609;185;817264;-65
2024/02/27 10:52:28;;;;;;;14.33;9.60;;;;;;;;;;750115;185;919378;-66
2024/02/27 10:54:53;;;;;;;19.87;9.57;;;;;;;;;;751085;185;918513;-65
2024/02/27 10:57:18;;;;;;;13.10;9.57;;;;;;;;;;749816;185;918640;-68
2024/02/27 10:59:44;;;;;;;12.37;9.33;;;;;;;;;;758185;184;917245;-67
2024/02/27 11:02:11;;;;;;;15.10;9.93;;;;;;;;;;748785;185;918753;-68
2024/02/27 11:04:38;;;;;;;12.50;8.53;;;;;;;;;;751969;185;675971;-68
2024/02/27 11:07:02;;;;;;;11.73;7.50;;;;;;;;;;752833;185;869767;-69
2024/02/27 11:09:28;;;;;;;13.87;8.90;;;;;;;;;;751103;184;816314;-65
2024/02/27 11:11:57;;;;;;;12.10;7.50;;;;;;;;;;748579;184;919206;-68
2024/02/27 11:14:24;;;;;;;12.23;8.30;;;;;;;;;;757169;185;794814;-67
2024/02/27 11:16:49;;;;;;;10.17;7.70;;;;;;;;;;749026;185;919103;-65
2024/02/27 11:19:17;;;;;;;11.27;7.17;;;;;;;;;;762351;182;615949;-65
2024/02/27 11:21:43;;;;;;;11.10;7.70;;;;;;;;;;756913;185;612505;-65
2024/02/27 11:24:09;;;;;;;10.67;7.93;;;;;;;;;;753426;184;840834;-67
2024/02/27 11:26:34;;;;;;;14.90;8.70;;;;;;;;;;749801;185;816491;-65
2024/02/27 11:29:00;;;;;;;9.70;7.67;;;;;;;;;;751405;185;853906;-68
2024/02/27 11:31:27;;;;;;;12.70;6.97;;;;;;;;;;752743;185;780979;-66
2024/02/27 11:33:52;;;;;;;12.02;7.65;;;;;;;;;;753105;183;918678;-66
2024/02/27 11:36:18;;;;;;;12.83;7.80;;;;;;;;;;753316;185;919895;-64
2024/02/27 11:38:44;;;;;;;10.33;7.40;;;;;;;;;;756130;185;918720;-69
2024/02/27 11:41:18;;;;;;;9.27;7.18;;;;;;;;;;749499;185;886808;-68
2024/02/27 11:43:46;;;;;;;11.40;7.47;;;;;;;;;;748559;183;917998;-65
2024/02/27 11:46:16;;;;;;;10.05;7.80;;;;;;;;;;749740;184;1044811;-65
2024/02/27 11:48:47;;;;;;;11.67;8.53;;;;;;;;;;747239;185;1018980;-67
2024/02/27 11:51:11;;;;;;;8.63;7.03;;;;;;;;;;747095;187;877078;-66
2024/02/27 11:53:37;;;;;;;12.70;7.90;;;;;;;;;;750337;184;861489;-66
2024/02/27 11:56:04;;;;;;;11.90;7.20;;;;;;;;;;748170;184;883178;-68
2024/02/27 11:58:29;;;;;;;9.10;7.43;;;;;;;;;;752997;185;921049;-66
2024/02/27 12:00:55;;;;;;;11.63;6.23;;;;;;;;;;751427;185;906639;-67
2024/02/27 12:03:21;;;;;;;12.40;7.07;;;;;;;;;;748653;185;928654;-65
2024/02/27 12:05:47;;;;;;;8.83;6.57;;;;;;;;;;755574;185;816272;-67
2024/02/27 12:08:14;;;;;;;9.53;6.13;;;;;;;;;;751355;185;920617;-65
2024/02/27 12:10:39;;;;;;;9.53;6.20;;;;;;;;;;748454;184;919675;-67
2024/02/27 12:13:04;;;;;;;11.00;7.53;;;;;;;;;;749076;184;822890;-67
2024/02/27 12:15:30;;;;;;;11.90;5.87;;;;;;;;;;754473;184;822686;-67
2024/02/27 12:17:56;;;;;;;11.57;7.27;;;;;;;;;;750904;182;920807;-69
2024/02/27 12:20:22;;;;;;;9.33;7.03;;;;;;;;;;748871;185;940608;-67
2024/02/27 12:22:50;;;;;;;9.43;6.35;;;;;;;;;;755105;185;919265;-66
2024/02/27 12:25:15;;;;;;;12.57;7.37;;;;;;;;;;751692;185;862663;-65
2024/02/27 12:27:41;;;;;;;11.47;7.57;;;;;;;;;;753180;185;814718;-66
2024/02/27 12:30:10;;;;;;;10.30;6.87;;;;;;;;;;755471;185;918242;-67
2024/02/27 12:32:34;;;;;;;8.97;6.50;;;;;;;;;;755434;184;922086;-64
2024/02/27 12:35:00;;;;;;;8.77;6.78;;;;;;;;;;751667;185;880287;-68
2024/02/27 12:37:26;;;;;;;11.93;7.30;;;;;;;;;;753194;185;857143;-66
2024/02/27 12:39:51;;;;;;;7.40;6.27;;;;;;;;;;755491;185;912673;-65
2024/02/27 12:42:17;;;;;;;10.90;8.97;;;;;;;;;;746291;185;990404;-67
2024/02/27 12:44:45;;;;;;;11.63;7.00;;;;;;;;;;748637;184;804504;-65
2024/02/27 12:47:11;;;;;;;8.83;6.40;;;;;;;;;;758484;184;859885;-67
2024/02/27 12:49:37;;;;;;;9.10;5.97;;;;;;;;;;754314;184;813984;-67
2024/02/27 12:52:03;;;;;;;8.43;6.63;;;;;;;;;;751380;185;918908;-66
2024/02/27 12:54:29;;;;;;;10.97;6.90;;;;;;;;;;748768;185;917118;-66
2024/02/27 12:56:54;;;;;;;10.17;6.67;;;;;;;;;;762901;184;919016;-66
2024/02/27 12:59:20;;;;;;;10.80;7.03;;;;;;;;;;749812;185;918835;-66
2024/02/27 13:01:46;;;;;;;9.67;7.13;;;;;;;;;;749060;184;923613;-65
2024/02/27 13:04:13;;;;;;;10.30;7.00;;;;;;;;;;756067;185;892493;-67
2024/02/27 13:06:38;;;;;;;9.10;6.80;;;;;;;;;;749474;183;920224;-67
2024/02/27 13:09:04;;;;;;;11.03;7.37;;;;;;;;;;747029;184;921743;-64
2024/02/27 13:11:29;;;;;;;20.40;7.37;;;;;;;;;;751676;185;907772;-67
2024/02/27 13:13:55;;;;;;;10.70;7.33;;;;;;;;;;748168;185;918268;-65
2024/02/27 13:16:21;;;;;;;10.13;6.83;;;;;;;;;;751843;184;815800;-66
2024/02/27 13:18:47;;;;;;;9.50;6.77;;;;;;;;;;755701;185;866274;-65
2024/02/27 13:21:13;;;;;;;9.67;6.43;;;;;;;;;;747119;185;920015;-67
2024/02/27 13:23:39;;;;;;;9.40;6.60;;;;;;;;;;749592;185;919715;-65
2024/02/27 13:26:04;;;;;;;8.80;5.70;;;;;;;;;;751382;185;918881;-65
2024/02/27 13:28:32;;;;;;;8.23;6.50;;;;;;;;;;755227;183;917315;-66
2024/02/27 13:30:56;;;;;;;9.33;6.50;;;;;;;;;;750145;185;908408;-68
2024/02/27 13:33:22;;;;;;;11.50;6.23;;;;;;;;;;748692;185;919169;-66
2024/02/27 13:35:48;;;;;;;9.97;5.90;;;;;;;;;;753181;184;919242;-66
2024/02/27 13:38:14;;;;;;;11.60;6.40;;;;;;;;;;749645;185;918751;-65
2024/02/27 13:40:39;;;;;;;8.27;6.07;;;;;;;;;;747529;186;918950;-67
2024/02/27 13:43:05;;;;;;;10.33;6.70;;;;;;;;;;754054;184;816446;-66
2024/02/27 13:45:31;;;;;;;11.30;5.93;;;;;;;;;;749619;185;918332;-65
2024/02/27 13:47:57;;;;;;;11.03;6.40;;;;;;;;;;747089;185;923497;-66
2024/02/27 13:50:23;;;;;;;11.30;6.40;;;;;;;;;;747953;185;918830;-66
2024/02/27 13:52:49;;;;;;;8.25;6.05;;;;;;;;;;755305;184;919426;-65
2024/02/27 13:55:14;;;;;;;11.20;6.93;;;;;;;;;;749288;184;918319;-66
2024/02/27 13:57:40;;;;;;;11.43;6.70;;;;;;;;;;751610;184;918988;-66
2024/02/27 14:00:07;;;;;;;10.40;7.40;;;;;;;;;;756958;185;919200;-66
2024/02/27 14:02:33;;;;;;;7.63;5.70;;;;;;;;;;751472;185;919369;-65
2024/02/27 14:04:58;;;;;;;13.80;5.40;;;;;;;;;;750637;185;919032;-67
2024/02/27 14:07:24;;;;;;;11.47;7.13;;;;;;;;;;754518;185;919292;-66